Time;durP1;ratioP1;P1;durP2;ratioP2;P2;SDS_P1;SDS_P2;PMS_P1;PMS_P2;Temp;Humidity;BMP_temperature;BMP_pressure;BME280_temperature;BME280_humidity;BME280_pressure;Samples;Min_cycle;Max_cycle;Signal;HPM_P1;HPM_P2
2023/06/08 00:00:10;;;;;;;4.40;1.70;;;;;;;-145.70;100.00;63560.63;4998622;28;21260;-63
2023/06/08 00:02:36;;;;;;;4.78;1.50;;;;;;;-145.70;100.00;63560.63;5006962;28;20108;-63
2023/06/08 00:05:04;;;;;;;4.68;1.95;;;;;;;-145.70;100.00;63560.63;5001091;28;20041;-64
2023/06/08 00:07:30;;;;;;;4.38;1.92;;;;;;;-145.70;100.00;63560.63;5013791;28;20017;-63
2023/06/08 00:09:58;;;;;;;4.00;1.70;;;;;;;-145.70;100.00;63560.63;5017976;28;20023;-65
2023/06/08 00:12:24;;;;;;;4.53;1.83;;;;;;;-145.70;100.00;63560.63;4998159;28;20029;-63
2023/06/08 00:14:50;;;;;;;4.10;1.65;;;;;;;-145.70;100.00;63560.63;4995553;28;20640;-64
2023/06/08 00:17:15;;;;;;;4.20;1.60;;;;;;;-145.70;100.00;63560.63;4999962;28;20062;-63
2023/06/08 00:19:45;;;;;;;4.38;1.83;;;;;;;-145.70;100.00;63560.63;5024855;28;20041;-63
2023/06/08 00:22:12;;;;;;;4.40;1.83;;;;;;;-145.70;100.00;63560.63;5010420;28;20036;-64
2023/06/08 00:24:41;;;;;;;4.57;1.80;;;;;;;-145.70;100.00;63560.63;5011667;28;20041;-63
2023/06/08 00:27:10;;;;;;;4.27;1.90;;;;;;;-145.70;100.00;63560.63;5014027;28;20056;-64
2023/06/08 00:29:36;;;;;;;4.68;1.73;;;;;;;-145.70;100.00;63560.63;5009756;28;20083;-64
2023/06/08 00:32:03;;;;;;;4.38;1.80;;;;;;;-145.70;100.00;63560.63;5027430;28;20153;-64
2023/06/08 00:34:31;;;;;;;4.50;1.70;;;;;;;-145.70;100.00;63560.63;4996821;28;20064;-64
2023/06/08 00:36:59;;;;;;;3.88;1.67;;;;;;;-145.70;100.00;63560.63;5010250;28;20033;-63
2023/06/08 00:39:26;;;;;;;3.95;1.70;;;;;;;-145.70;100.00;63560.63;5000108;28;20029;-64
2023/06/08 00:41:52;;;;;;;4.45;1.70;;;;;;;-145.70;100.00;63560.63;5010705;28;20029;-64
2023/06/08 00:44:18;;;;;;;5.00;1.90;;;;;;;-145.70;100.00;63560.63;4994208;28;20030;-63
2023/06/08 00:46:45;;;;;;;4.25;1.70;;;;;;;-145.70;100.00;63560.63;5009538;28;20037;-63
2023/06/08 00:49:15;;;;;;;3.95;1.63;;;;;;;-145.70;100.00;63560.63;5011350;28;20029;-63
2023/06/08 00:51:44;;;;;;;4.63;2.00;;;;;;;-145.70;100.00;63560.63;4987462;28;20020;-64
2023/06/08 00:54:14;;;;;;;4.47;2.10;;;;;;;-145.70;100.00;63560.63;5004055;28;20087;-64
2023/06/08 00:56:40;;;;;;;4.60;1.90;;;;;;;-145.70;100.00;63560.63;5011519;28;20526;-62
2023/06/08 00:59:14;;;;;;;4.78;1.92;;;;;;;-145.70;100.00;63560.63;4990590;28;20060;-63
2023/06/08 01:01:44;;;;;;;4.70;1.90;;;;;;;-145.70;100.00;63560.63;5023995;28;20028;-64
2023/06/08 01:04:14;;;;;;;4.50;1.70;;;;;;;-145.70;100.00;63560.63;5011193;28;20110;-63
2023/06/08 01:06:46;;;;;;;;;;;;;;;-145.70;100.00;63560.63;5028829;28;20120;-64
2023/06/08 01:09:45;;;;;;;4.57;1.98;;;;;;;-145.70;100.00;63560.63;5010960;28;20007;-64
2023/06/08 01:12:13;;;;;;;4.30;2.03;;;;;;;-145.70;100.00;63560.63;5000838;28;21417;-64
2023/06/08 01:15:01;;;;;;;4.18;1.75;;;;;;;-145.70;100.00;63560.63;5025786;28;20029;-64
2023/06/08 01:17:40;;;;;;;4.00;1.80;;;;;;;-145.70;100.00;63560.63;5028034;28;20071;-64
2023/06/08 01:20:12;;;;;;;4.70;1.80;;;;;;;-145.70;100.00;63560.63;5011699;28;20025;-63
2023/06/08 01:23:08;;;;;;;4.80;2.10;;;;;;;-145.70;100.00;63560.63;5026513;28;20080;-63
2023/06/08 01:25:35;;;;;;;4.95;2.10;;;;;;;-145.70;100.00;63560.63;5032785;28;20037;-63
2023/06/08 01:28:12;;;;;;;4.15;1.60;;;;;;;-145.70;100.00;63560.63;5005970;28;20594;-62
2023/06/08 01:30:43;;;;;;;3.92;1.63;;;;;;;-145.70;100.00;63560.63;5010056;28;20018;-64
2023/06/08 01:33:16;;;;;;;4.80;1.90;;;;;;;-145.70;100.00;63560.63;4994442;28;20040;-65
2023/06/08 01:35:44;;;;;;;4.30;1.90;;;;;;;-145.70;100.00;63560.63;5008711;28;20060;-64
2023/06/08 01:38:51;;;;;;;4.20;1.70;;;;;;;-145.70;100.00;63560.63;4995949;28;20056;-64
2023/06/08 01:41:35;;;;;;;4.30;1.88;;;;;;;-145.70;100.00;63560.63;4963371;28;20038;-63
2023/06/08 01:44:00;;;;;;;4.40;1.90;;;;;;;-145.70;100.00;63560.63;5011929;28;20048;-64
2023/06/08 01:46:32;;;;;;;6.07;2.00;;;;;;;-145.70;100.00;63560.63;4989869;28;20825;-64
2023/06/08 01:49:00;;;;;;;4.43;1.83;;;;;;;-145.70;100.00;63560.63;5004828;28;20083;-64
2023/06/08 01:51:26;;;;;;;5.07;2.10;;;;;;;-145.70;100.00;63560.63;5011480;28;20032;-64
2023/06/08 01:54:02;;;;;;;4.25;1.88;;;;;;;-145.70;100.00;63560.63;5004616;28;20033;-64
2023/06/08 01:56:30;;;;;;;4.38;1.88;;;;;;;-145.70;100.00;63560.63;5005286;28;20131;-64
2023/06/08 01:58:58;;;;;;;4.23;1.77;;;;;;;-145.70;100.00;63560.63;5023314;28;20027;-63
2023/06/08 02:01:24;;;;;;;4.18;1.80;;;;;;;-145.70;100.00;63560.63;5024674;28;20458;-64
2023/06/08 02:03:49;;;;;;;6.05;2.00;;;;;;;-145.70;100.00;63560.63;5009293;28;20036;-64
2023/06/08 02:06:15;;;;;;;5.05;2.10;;;;;;;-145.70;100.00;63560.63;5005857;28;20052;-64
2023/06/08 02:08:41;;;;;;;4.85;1.80;;;;;;;-145.70;100.00;63560.63;5012816;28;20201;-63
2023/06/08 02:11:10;;;;;;;4.88;1.95;;;;;;;-145.70;100.00;63560.63;5011323;28;20040;-63
2023/06/08 02:13:41;;;;;;;4.53;1.90;;;;;;;-145.70;100.00;63560.63;5029669;28;20091;-64
2023/06/08 02:16:07;;;;;;;4.05;1.73;;;;;;;-145.70;100.00;63560.63;4999083;28;20033;-64
2023/06/08 02:18:35;;;;;;;7.97;1.92;;;;;;;-145.70;100.00;63560.63;5017255;28;20040;-64
2023/06/08 02:21:02;;;;;;;5.78;2.28;;;;;;;-145.70;100.00;63560.63;5009022;28;20029;-64
2023/06/08 02:23:28;;;;;;;5.00;2.17;;;;;;;-145.70;100.00;63560.63;5013138;28;20180;-63
2023/06/08 02:25:53;;;;;;;5.22;2.15;;;;;;;-145.70;100.00;63560.63;4997796;28;20822;-64
2023/06/08 02:28:19;;;;;;;4.60;2.15;;;;;;;-145.70;100.00;63560.63;4998711;28;20037;-64
2023/06/08 02:30:44;;;;;;;4.30;2.08;;;;;;;-145.70;100.00;63560.63;5009755;28;20080;-63
2023/06/08 02:33:09;;;;;;;4.43;1.88;;;;;;;-145.70;100.00;63560.63;5011534;28;20087;-63
2023/06/08 02:35:36;;;;;;;4.20;1.83;;;;;;;-145.70;100.00;63560.63;4999701;28;20028;-63
2023/06/08 02:38:04;;;;;;;4.28;1.90;;;;;;;-145.70;100.00;63560.63;4991935;28;20021;-64
2023/06/08 02:40:30;;;;;;;4.60;2.00;;;;;;;-145.70;100.00;63560.63;5000367;28;20021;-65
2023/06/08 02:42:55;;;;;;;4.28;1.90;;;;;;;-145.70;100.00;63560.63;5008303;28;20691;-64
2023/06/08 02:45:20;;;;;;;4.20;1.88;;;;;;;-145.70;100.00;63560.63;5009872;28;20024;-64
2023/06/08 02:47:48;;;;;;;4.68;1.83;;;;;;;-145.70;100.00;63560.63;5028782;28;20031;-64
2023/06/08 02:50:13;;;;;;;5.07;2.03;;;;;;;-145.70;100.00;63560.63;5007898;28;20641;-64
2023/06/08 02:52:41;;;;;;;4.60;1.92;;;;;;;-145.70;100.00;63560.63;5006012;28;20066;-64
2023/06/08 02:55:07;;;;;;;4.75;1.98;;;;;;;-145.70;100.00;63560.63;4982890;28;20431;-64
2023/06/08 02:57:32;;;;;;;4.18;1.77;;;;;;;-145.70;100.00;63560.63;5007661;28;20041;-63
2023/06/08 02:59:58;;;;;;;4.78;2.03;;;;;;;-145.70;100.00;63560.63;5006729;28;20095;-64
2023/06/08 03:02:27;;;;;;;4.82;2.15;;;;;;;-145.70;100.00;63560.63;4997794;28;20033;-64
2023/06/08 03:04:53;;;;;;;6.97;2.15;;;;;;;-145.70;100.00;63560.63;5002104;28;20037;-64
2023/06/08 03:07:19;;;;;;;7.45;1.83;;;;;;;-145.70;100.00;63560.63;5004995;28;20030;-64
2023/06/08 03:09:44;;;;;;;4.47;2.10;;;;;;;-145.70;100.00;63560.63;4990889;28;20025;-64
2023/06/08 03:12:12;;;;;;;4.63;2.05;;;;;;;-145.70;100.00;63560.63;4981264;28;20052;-64
2023/06/08 03:14:40;;;;;;;5.10;2.13;;;;;;;-145.70;100.00;63560.63;5023028;28;20037;-63
2023/06/08 03:17:07;;;;;;;5.05;2.22;;;;;;;-145.70;100.00;63560.63;4991516;28;20036;-64
2023/06/08 03:19:32;;;;;;;4.38;1.67;;;;;;;-145.70;100.00;63560.63;5016040;28;20025;-65
2023/06/08 03:22:04;;;;;;;4.60;1.92;;;;;;;-145.70;100.00;63560.63;5005217;28;20025;-65
2023/06/08 03:24:32;;;;;;;5.22;2.00;;;;;;;-145.70;100.00;63560.63;5033142;28;20021;-64
2023/06/08 03:27:01;;;;;;;5.93;2.08;;;;;;;-145.70;100.00;63560.63;4965781;28;20490;-64
2023/06/08 03:29:28;;;;;;;5.23;2.33;;;;;;;-145.70;100.00;63560.63;4986427;28;20041;-64
2023/06/08 03:31:54;;;;;;;4.72;2.00;;;;;;;-145.70;100.00;63560.63;5015372;28;20028;-63
2023/06/08 03:34:20;;;;;;;4.20;1.83;;;;;;;-145.70;100.00;63560.63;4993070;28;20033;-64
2023/06/08 03:36:46;;;;;;;5.60;2.13;;;;;;;-145.70;100.00;63560.63;5014685;28;20104;-64
2023/06/08 03:39:16;;;;;;;4.75;2.10;;;;;;;-145.70;100.00;63560.63;4991511;28;20029;-64
2023/06/08 03:41:41;;;;;;;6.53;2.20;;;;;;;-145.70;100.00;63560.63;5028566;28;20025;-65
2023/06/08 03:44:07;;;;;;;4.22;1.92;;;;;;;-145.70;100.00;63560.63;4985576;28;20036;-63
2023/06/08 03:46:32;;;;;;;5.10;2.10;;;;;;;-145.70;100.00;63560.63;5023306;28;20395;-64
2023/06/08 03:48:58;;;;;;;5.15;1.88;;;;;;;-145.70;100.00;63560.63;5028122;28;20032;-64
2023/06/08 03:51:23;;;;;;;5.18;2.10;;;;;;;-145.70;100.00;63560.63;5012464;28;20028;-64
2023/06/08 03:53:49;;;;;;;4.95;2.00;;;;;;;-145.70;100.00;63560.63;5029703;28;20029;-67
2023/06/08 03:56:15;;;;;;;5.07;2.05;;;;;;;-145.70;100.00;63560.63;5028769;28;20141;-63
2023/06/08 03:58:44;;;;;;;5.45;2.22;;;;;;;-145.70;100.00;63560.63;4999605;28;20033;-64
2023/06/08 04:01:12;;;;;;;5.83;2.13;;;;;;;-145.70;100.00;63560.63;5012082;28;20041;-64
2023/06/08 04:03:38;;;;;;;4.97;2.10;;;;;;;-145.70;100.00;63560.63;5007029;28;20804;-64
2023/06/08 04:06:08;;;;;;;4.45;1.90;;;;;;;-145.70;100.00;63560.63;5030307;28;20044;-66
2023/06/08 04:08:39;;;;;;;;;;;;;;;-145.70;100.00;63560.63;5007947;28;21213;-64
2023/06/08 04:11:04;;;;;;;4.40;2.10;;;;;;;-145.70;100.00;63560.63;5009772;28;20274;-64
2023/06/08 04:13:30;;;;;;;4.22;1.88;;;;;;;-145.70;100.00;63560.63;5009980;28;20063;-64
2023/06/08 04:15:58;;;;;;;4.60;2.00;;;;;;;-145.70;100.00;63560.63;4986648;28;20172;-63
2023/06/08 04:18:23;;;;;;;4.93;1.83;;;;;;;-145.70;100.00;63560.63;4991940;28;20053;-63
2023/06/08 04:20:49;;;;;;;5.32;2.10;;;;;;;-145.70;100.00;63560.63;5019920;28;20033;-65
2023/06/08 04:23:17;;;;;;;5.07;2.17;;;;;;;-145.70;100.00;63560.63;5009633;28;20017;-64
2023/06/08 04:25:42;;;;;;;5.25;1.90;;;;;;;-145.70;100.00;63560.63;5020117;28;20111;-65
2023/06/08 04:28:08;;;;;;;4.82;1.90;;;;;;;-145.70;100.00;63560.63;5030905;28;20045;-65
2023/06/08 04:30:33;;;;;;;4.97;2.15;;;;;;;-145.70;100.00;63560.63;4984640;28;20418;-64
2023/06/08 04:32:59;;;;;;;4.13;1.88;;;;;;;-145.70;100.00;63560.63;4992500;28;20505;-64
2023/06/08 04:35:25;;;;;;;4.57;2.00;;;;;;;-145.70;100.00;63560.63;5012899;28;20016;-64
2023/06/08 04:37:53;;;;;;;5.15;2.20;;;;;;;-145.70;100.00;63560.63;5003128;28;20116;-63
2023/06/08 04:40:19;;;;;;;5.35;2.08;;;;;;;-145.70;100.00;63560.63;5013050;28;20041;-64
2023/06/08 04:42:45;;;;;;;5.53;1.90;;;;;;;-145.70;100.00;63560.63;5019231;28;20017;-65
2023/06/08 04:45:11;;;;;;;4.70;2.20;;;;;;;-145.70;100.00;63560.63;4989395;28;20859;-64
2023/06/08 04:47:41;;;;;;;4.68;2.10;;;;;;;-145.70;100.00;63560.63;5007507;28;20103;-65
2023/06/08 04:50:10;;;;;;;4.82;2.22;;;;;;;-145.70;100.00;63560.63;5002841;28;20048;-64
2023/06/08 04:52:40;;;;;;;5.30;2.20;;;;;;;-145.70;100.00;63560.63;5012057;28;20074;-63
2023/06/08 04:55:12;;;;;;;4.60;2.20;;;;;;;-145.70;100.00;63560.63;5008605;28;20032;-64
2023/06/08 04:57:40;;;;;;;4.32;1.95;;;;;;;-145.70;100.00;63560.63;5013075;28;21194;-64
2023/06/08 05:00:08;;;;;;;4.93;2.35;;;;;;;-145.70;100.00;63560.63;5019603;28;20033;-64
2023/06/08 05:02:34;;;;;;;5.38;2.28;;;;;;;-145.70;100.00;63560.63;5023146;28;20049;-64
2023/06/08 05:04:59;;;;;;;4.82;2.00;;;;;;;-145.70;100.00;63560.63;4974443;28;20049;-64
2023/06/08 05:07:25;;;;;;;4.85;2.08;;;;;;;-145.70;100.00;63560.63;4989501;28;20251;-62
2023/06/08 05:09:50;;;;;;;5.45;2.38;;;;;;;-145.70;100.00;63560.63;4989313;28;20738;-64
2023/06/08 05:12:17;;;;;;;4.40;2.20;;;;;;;-145.70;100.00;63560.63;4971077;28;20672;-64
2023/06/08 05:14:51;;;;;;;4.95;2.30;;;;;;;-145.70;100.00;63560.63;4989376;28;20112;-64
2023/06/08 05:17:16;;;;;;;4.47;2.10;;;;;;;-145.70;100.00;63560.63;4986018;28;20029;-64
2023/06/08 05:19:41;;;;;;;4.53;1.90;;;;;;;-145.70;100.00;63560.63;4964239;28;20534;-65
2023/06/08 05:22:10;;;;;;;5.22;2.08;;;;;;;-145.70;100.00;63560.63;4997240;28;20698;-64
2023/06/08 05:24:35;;;;;;;4.38;2.35;;;;;;;-145.70;100.00;63560.63;5001213;28;20049;-65
2023/06/08 05:27:00;;;;;;;5.18;2.15;;;;;;;-145.70;100.00;63560.63;4990631;28;20030;-62
2023/06/08 05:29:26;;;;;;;6.22;2.10;;;;;;;-145.70;100.00;63560.63;5008764;28;20088;-63
2023/06/08 05:31:51;;;;;;;5.32;2.25;;;;;;;-145.70;100.00;63560.63;4990538;28;20357;-64
2023/06/08 05:34:17;;;;;;;5.65;2.20;;;;;;;-145.70;100.00;63560.63;4981676;28;21648;-64
2023/06/08 05:36:44;;;;;;;4.35;1.95;;;;;;;-145.70;100.00;63560.63;4963655;28;20029;-63
2023/06/08 05:39:10;;;;;;;4.78;2.47;;;;;;;-145.70;100.00;63560.63;4980348;28;20623;-64
2023/06/08 05:41:37;;;;;;;4.68;2.17;;;;;;;-145.70;100.00;63560.63;4978559;28;20638;-64
2023/06/08 05:44:08;;;;;;;6.30;2.00;;;;;;;-145.70;100.00;63560.63;4984339;28;20033;-65
2023/06/08 05:46:33;;;;;;;4.07;1.83;;;;;;;-145.70;100.00;63560.63;4973975;28;20084;-64
2023/06/08 05:48:59;;;;;;;4.88;2.25;;;;;;;-145.70;100.00;63560.63;4994797;28;20024;-64
2023/06/08 05:51:27;;;;;;;5.85;2.13;;;;;;;-145.70;100.00;63560.63;4983058;28;20403;-63
2023/06/08 05:53:55;;;;;;;5.63;2.38;;;;;;;-145.70;100.00;63560.63;4985729;28;20083;-63
2023/06/08 05:56:21;;;;;;;5.00;2.15;;;;;;;-145.70;100.00;63560.63;4970837;28;20391;-63
2023/06/08 05:58:48;;;;;;;5.93;2.00;;;;;;;-145.70;100.00;63560.63;4988150;28;20021;-63
2023/06/08 06:01:14;;;;;;;6.50;2.17;;;;;;;-145.70;100.00;63560.63;4967883;28;20534;-64
2023/06/08 06:03:42;;;;;;;4.47;1.90;;;;;;;-145.70;100.00;63560.63;4991611;28;20045;-63
2023/06/08 06:06:11;;;;;;;4.50;2.10;;;;;;;-145.70;100.00;63560.63;5003697;28;20041;-64
2023/06/08 06:08:36;;;;;;;4.75;1.75;;;;;;;-145.70;100.00;63560.63;5008616;28;20060;-64
2023/06/08 06:11:01;;;;;;;5.68;2.38;;;;;;;-145.70;100.00;63560.63;5010135;28;20128;-63
2023/06/08 06:13:31;;;;;;;6.07;2.25;;;;;;;-145.70;100.00;63560.63;5007111;28;20021;-64
2023/06/08 06:15:57;;;;;;;4.40;1.98;;;;;;;-145.70;100.00;63560.63;5028037;28;20082;-65
2023/06/08 06:18:23;;;;;;;6.00;2.45;;;;;;;-145.70;100.00;63560.63;5005877;28;20150;-63
2023/06/08 06:20:50;;;;;;;5.70;2.40;;;;;;;-145.70;100.00;63560.63;4994245;28;20039;-63
2023/06/08 06:23:16;;;;;;;4.40;2.20;;;;;;;-145.70;100.00;63560.63;5004275;28;20609;-66
2023/06/08 06:25:44;;;;;;;4.82;1.95;;;;;;;-145.70;100.00;63560.63;4990137;28;20140;-63
2023/06/08 06:28:12;;;;;;;4.72;2.03;;;;;;;-145.70;100.00;63560.63;5010789;28;20350;-63
2023/06/08 06:30:40;;;;;;;5.53;2.30;;;;;;;-145.70;100.00;63560.63;5004565;28;20436;-64
2023/06/08 06:33:05;;;;;;;5.20;2.30;;;;;;;-145.70;100.00;63560.63;5008331;28;20136;-63
2023/06/08 06:35:30;;;;;;;5.28;2.33;;;;;;;-145.70;100.00;63560.63;4999780;28;20037;-63
2023/06/08 06:37:56;;;;;;;4.95;2.10;;;;;;;-145.70;100.00;63560.63;5027026;28;20024;-63
2023/06/08 06:40:24;;;;;;;4.72;2.08;;;;;;;-145.70;100.00;63560.63;4985929;28;20071;-64
2023/06/08 06:42:52;;;;;;;4.65;2.25;;;;;;;-145.70;100.00;63560.63;5004982;28;20124;-64
2023/06/08 06:45:18;;;;;;;4.82;2.10;;;;;;;-145.70;100.00;63560.63;5000020;28;20060;-64
2023/06/08 06:47:43;;;;;;;5.63;2.03;;;;;;;-145.70;100.00;63560.63;4994213;28;21339;-63
2023/06/08 06:50:08;;;;;;;5.18;2.10;;;;;;;-145.70;100.00;63560.63;5008803;28;20037;-64
2023/06/08 06:52:34;;;;;;;4.28;1.90;;;;;;;-145.70;100.00;63560.63;4999536;28;20194;-65
2023/06/08 06:55:02;;;;;;;5.15;2.22;;;;;;;-145.70;100.00;63560.63;5013752;28;20025;-65
2023/06/08 06:57:31;;;;;;;5.53;2.17;;;;;;;-145.70;100.00;63560.63;4993732;28;20732;-65
2023/06/08 07:00:03;;;;;;;4.57;1.90;;;;;;;-145.70;100.00;63560.63;5025668;28;20017;-65
2023/06/08 07:02:28;;;;;;;4.70;2.20;;;;;;;-145.70;100.00;63560.63;4990679;28;20094;-65
2023/06/08 07:05:02;;;;;;;4.25;1.90;;;;;;;-145.70;100.00;63560.63;5014480;28;20398;-66
2023/06/08 07:07:30;;;;;;;5.13;2.10;;;;;;;-145.70;100.00;63560.63;4996507;28;20055;-65
2023/06/08 07:09:55;;;;;;;4.88;2.10;;;;;;;-145.70;100.00;63560.63;5012574;28;20021;-65
2023/06/08 07:12:20;;;;;;;4.75;1.90;;;;;;;-145.70;100.00;63560.63;5009364;28;20034;-64
2023/06/08 07:14:48;;;;;;;4.70;2.00;;;;;;;-145.70;100.00;63560.63;5019023;28;20028;-65
2023/06/08 07:17:14;;;;;;;5.53;2.13;;;;;;;-145.70;100.00;63560.63;5015833;28;20021;-64
2023/06/08 07:19:41;;;;;;;5.25;2.10;;;;;;;-145.70;100.00;63560.63;5008797;28;20443;-65
2023/06/08 07:22:09;;;;;;;4.65;2.17;;;;;;;-145.70;100.00;63560.63;5013277;28;20075;-65
2023/06/08 07:24:35;;;;;;;4.95;2.20;;;;;;;-145.70;100.00;63560.63;5030634;28;20036;-64
2023/06/08 07:27:01;;;;;;;6.40;2.33;;;;;;;-145.70;100.00;63560.63;5015726;28;20074;-65
2023/06/08 07:29:26;;;;;;;4.47;2.00;;;;;;;-145.70;100.00;63560.63;5026601;28;20784;-63
2023/06/08 07:31:51;;;;;;;4.80;2.08;;;;;;;-145.70;100.00;63560.63;5015350;28;20907;-66
2023/06/08 07:34:17;;;;;;;4.32;2.03;;;;;;;-145.70;100.00;63560.63;5009054;28;20040;-64
2023/06/08 07:36:42;;;;;;;5.88;2.30;;;;;;;-145.70;100.00;63560.63;5011436;28;20036;-64
2023/06/08 07:39:08;;;;;;;5.35;2.45;;;;;;;-145.70;100.00;63560.63;5010127;28;20036;-67
2023/06/08 07:41:34;;;;;;;6.78;2.15;;;;;;;-145.70;100.00;63560.63;4991659;28;20029;-65
2023/06/08 07:44:02;;;;;;;4.28;2.13;;;;;;;-145.70;100.00;63560.63;4991922;28;20394;-65
2023/06/08 07:46:30;;;;;;;4.80;2.40;;;;;;;-145.70;100.00;63560.63;4991532;28;20223;-65
2023/06/08 07:48:58;;;;;;;5.57;2.15;;;;;;;-145.70;100.00;63560.63;5005934;28;20576;-65
2023/06/08 07:51:23;;;;;;;5.43;2.22;;;;;;;-145.70;100.00;63560.63;5005323;28;20040;-66
2023/06/08 07:53:49;;;;;;;4.70;2.03;;;;;;;-145.70;100.00;63560.63;5026117;28;20044;-65
2023/06/08 07:56:14;;;;;;;4.93;2.00;;;;;;;-145.70;100.00;63560.63;5003523;28;20028;-66
2023/06/08 07:58:40;;;;;;;4.65;2.10;;;;;;;-145.70;100.00;63560.63;4996194;28;20032;-65
2023/06/08 08:01:06;;;;;;;4.93;2.25;;;;;;;-145.70;100.00;63560.63;5005161;28;20033;-64
2023/06/08 08:03:35;;;;;;;4.95;2.22;;;;;;;-145.70;100.00;63560.63;4990139;28;20029;-64
2023/06/08 08:06:03;;;;;;;4.95;2.60;;;;;;;-145.70;100.00;63560.63;5023224;28;20091;-65
2023/06/08 08:08:28;;;;;;;6.38;2.72;;;;;;;-145.70;100.00;63560.63;5010773;28;20033;-65
2023/06/08 08:10:54;;;;;;;5.10;2.55;;;;;;;-145.70;100.00;63560.63;5002357;28;20064;-66
2023/06/08 08:13:22;;;;;;;4.47;2.17;;;;;;;-145.70;100.00;63560.63;4992467;28;20052;-65
2023/06/08 08:15:47;;;;;;;6.63;2.10;;;;;;;-145.70;100.00;63560.63;5028203;28;20674;-65
2023/06/08 08:18:15;;;;;;;4.65;2.10;;;;;;;-145.70;100.00;63560.63;5005268;28;20047;-65
2023/06/08 08:20:43;;;;;;;6.45;2.60;;;;;;;-145.70;100.00;63560.63;5002852;28;20048;-65
2023/06/08 08:23:08;;;;;;;4.65;2.17;;;;;;;-145.70;100.00;63560.63;5006008;28;20691;-65
2023/06/08 08:25:34;;;;;;;4.72;2.25;;;;;;;-145.70;100.00;63560.63;5005221;28;20041;-65
2023/06/08 08:28:00;;;;;;;4.65;2.00;;;;;;;-145.70;100.00;63560.63;5008909;28;20764;-65
2023/06/08 08:30:28;;;;;;;5.15;2.30;;;;;;;-145.70;100.00;63560.63;5006107;28;20781;-65
2023/06/08 08:32:53;;;;;;;4.53;2.22;;;;;;;-145.70;100.00;63560.63;4991017;28;20049;-64
2023/06/08 08:35:19;;;;;;;5.10;2.50;;;;;;;-145.70;100.00;63560.63;5009065;28;20037;-65
2023/06/08 08:37:47;;;;;;;4.78;2.50;;;;;;;-145.70;100.00;63560.63;5002878;28;20032;-65
2023/06/08 08:40:13;;;;;;;5.07;2.80;;;;;;;-145.70;100.00;63560.63;5010977;28;20116;-65
2023/06/08 08:42:43;;;;;;;6.00;2.90;;;;;;;-145.70;100.00;63560.63;5002472;28;20079;-64
2023/06/08 08:45:13;;;;;;;6.22;2.80;;;;;;;-145.70;100.00;63560.63;5026595;28;20025;-65
2023/06/08 08:47:38;;;;;;;6.63;2.50;;;;;;;-145.70;100.00;63560.63;5008837;28;20116;-65
2023/06/08 08:50:09;;;;;;;5.70;2.40;;;;;;;-145.70;100.00;63560.63;4994706;28;20080;-65
2023/06/08 08:52:42;;;;;;;4.72;2.30;;;;;;;-145.70;100.00;63560.63;5007203;28;20072;-65
2023/06/08 08:55:12;;;;;;;5.18;2.20;;;;;;;-145.70;100.00;63560.63;4995650;28;20060;-64
2023/06/08 08:57:38;;;;;;;5.30;2.80;;;;;;;-145.70;100.00;63560.63;4994090;28;20044;-65
2023/06/08 09:00:09;;;;;;;4.53;2.15;;;;;;;-145.70;100.00;63560.63;4993855;28;20144;-63
2023/06/08 09:02:36;;;;;;;5.57;2.67;;;;;;;-145.70;100.00;63560.63;5003051;28;20071;-64
2023/06/08 09:05:05;;;;;;;5.13;2.45;;;;;;;-145.70;100.00;63560.63;4993507;28;20048;-65
2023/06/08 09:07:31;;;;;;;5.20;2.50;;;;;;;-145.70;100.00;63560.63;5025306;28;20017;-64
2023/06/08 09:10:15;;;;;;;4.70;2.20;;;;;;;-145.70;100.00;63560.63;5012648;28;20020;-64
2023/06/08 09:12:41;;;;;;;4.85;2.28;;;;;;;-145.70;100.00;63560.63;5013573;28;20049;-65
2023/06/08 09:15:11;;;;;;;5.35;2.50;;;;;;;-145.70;100.00;63560.63;5008063;28;20411;-63
2023/06/08 09:17:38;;;;;;;6.15;2.60;;;;;;;-145.70;100.00;63560.63;5020319;28;20138;-64
2023/06/08 09:20:08;;;;;;;4.70;2.40;;;;;;;-145.70;100.00;63560.63;5023230;28;20025;-64
2023/06/08 09:22:39;;;;;;;5.30;2.20;;;;;;;-145.70;100.00;63560.63;5015625;28;20146;-64
2023/06/08 09:25:05;;;;;;;5.00;2.40;;;;;;;-145.70;100.00;63560.63;5021054;28;20024;-64
2023/06/08 09:27:37;;;;;;;4.95;2.20;;;;;;;-145.70;100.00;63560.63;5025906;28;20638;-63
2023/06/08 09:30:21;;;;;;;5.05;2.42;;;;;;;-145.70;100.00;63560.63;5007882;28;20071;-62
2023/06/08 09:32:51;;;;;;;6.03;2.95;;;;;;;-145.70;100.00;63560.63;5002198;28;20392;-62
2023/06/08 09:35:24;;;;;;;4.50;2.20;;;;;;;-145.70;100.00;63560.63;5011059;28;20032;-63
2023/06/08 09:37:53;;;;;;;5.93;2.30;;;;;;;-145.70;100.00;63560.63;4985435;28;20016;-63
2023/06/08 09:40:24;;;;;;;7.78;2.85;;;;;;;-145.70;100.00;63560.63;5011158;28;20110;-64
2023/06/08 09:42:53;;;;;;;5.47;2.90;;;;;;;-145.70;100.00;63560.63;5032007;28;20103;-64
2023/06/08 09:45:20;;;;;;;6.55;3.28;;;;;;;-145.70;100.00;63560.63;5000273;28;20017;-64
2023/06/08 09:47:48;;;;;;;6.10;3.28;;;;;;;-145.70;100.00;63560.63;5005139;28;20376;-63
2023/06/08 09:50:13;;;;;;;6.47;3.33;;;;;;;-145.70;100.00;63560.63;4999794;28;20012;-64
2023/06/08 09:52:42;;;;;;;5.78;3.47;;;;;;;-145.70;100.00;63560.63;4997184;28;20032;-64
2023/06/08 09:55:10;;;;;;;6.75;3.40;;;;;;;-145.70;100.00;63560.63;5014727;28;20021;-64
2023/06/08 09:57:37;;;;;;;6.25;3.40;;;;;;;-145.70;100.00;63560.63;5009842;28;20384;-63
2023/06/08 10:00:21;;;;;;;6.38;3.28;;;;;;;-145.70;100.00;63560.63;5032180;28;20044;-63
2023/06/08 10:03:06;;;;;;;5.15;2.80;;;;;;;-145.70;100.00;63560.63;5029462;28;20029;-63
2023/06/08 10:05:35;;;;;;;5.63;3.20;;;;;;;-145.70;100.00;63560.63;5031026;28;20039;-64
2023/06/08 10:08:02;;;;;;;7.68;3.28;;;;;;;-145.70;100.00;63560.63;5013372;28;20060;-64
2023/06/08 10:10:39;;;;;;;5.78;3.28;;;;;;;-145.70;100.00;63560.63;5027121;28;20039;-65
2023/06/08 10:13:05;;;;;;;5.00;3.08;;;;;;;-145.70;100.00;63560.63;5020625;28;20024;-65
2023/06/08 10:15:34;;;;;;;5.32;2.92;;;;;;;-145.70;100.00;63560.63;5009650;28;20134;-64
2023/06/08 10:18:00;;;;;;;5.30;2.90;;;;;;;-145.70;100.00;63560.63;4992437;28;20029;-64
2023/06/08 10:20:28;;;;;;;7.65;3.20;;;;;;;-145.70;100.00;63560.63;4992538;28;20028;-64
2023/06/08 10:22:58;;;;;;;6.50;3.53;;;;;;;-145.70;100.00;63560.63;4999890;28;20192;-63
2023/06/08 10:25:23;;;;;;;;;;;;;;;-145.70;100.00;63560.63;5028069;28;20037;-63
2023/06/08 10:27:50;;;;;;;5.55;3.08;;;;;;;-145.70;100.00;63560.63;5013580;28;19920;-64
2023/06/08 10:30:39;;;;;;;5.68;3.00;;;;;;;-145.70;100.00;63560.63;5030971;28;20039;-63
2023/06/08 10:33:12;;;;;;;5.68;2.97;;;;;;;-145.70;100.00;63560.63;4998749;28;20036;-64
2023/06/08 10:35:42;;;;;;;5.57;2.70;;;;;;;-145.70;100.00;63560.63;4990956;28;20091;-65
2023/06/08 10:38:11;;;;;;;5.30;3.08;;;;;;;-145.70;100.00;63560.63;5027276;28;20089;-64
2023/06/08 10:40:50;;;;;;;5.20;2.67;;;;;;;-145.70;100.00;63560.63;5027757;28;20673;-64
2023/06/08 10:43:16;;;;;;;6.93;3.05;;;;;;;-145.70;100.00;63560.63;4999486;28;20024;-64
2023/06/08 10:45:48;;;;;;;6.10;3.17;;;;;;;-145.70;100.00;63560.63;4992077;28;20024;-64
2023/06/08 10:48:18;;;;;;;5.43;2.92;;;;;;;-145.70;100.00;63560.63;5014188;28;20051;-63
2023/06/08 10:50:48;;;;;;;5.28;2.83;;;;;;;-145.70;100.00;63560.63;5002005;28;20025;-63
2023/06/08 10:53:17;;;;;;;5.68;2.88;;;;;;;-145.70;100.00;63560.63;5022372;28;20029;-63
2023/06/08 10:55:46;;;;;;;6.35;2.80;;;;;;;-145.70;100.00;63560.63;5010001;28;20025;-65
2023/06/08 10:58:21;;;;;;;4.75;2.63;;;;;;;-145.70;100.00;63560.63;5023229;28;20099;-63
2023/06/08 11:01:05;;;;;;;6.95;2.70;;;;;;;-145.70;100.00;63560.63;4985621;28;20032;-63
2023/06/08 11:03:46;;;;;;;5.47;2.67;;;;;;;-145.70;100.00;63560.63;5024864;28;20021;-63
2023/06/08 11:06:15;;;;;;;4.47;2.40;;;;;;;-145.70;100.00;63560.63;4970884;28;20050;-63
2023/06/08 11:08:43;;;;;;;5.05;2.55;;;;;;;-145.70;100.00;63560.63;4989170;28;20040;-64
2023/06/08 11:11:12;;;;;;;4.72;2.45;;;;;;;-145.70;100.00;63560.63;4992409;28;20057;-64
2023/06/08 11:13:40;;;;;;;4.63;2.38;;;;;;;-145.70;100.00;63560.63;5002143;28;20034;-63